Time;durP1;ratioP1;P1;durP2;ratioP2;P2;SDS_P1;SDS_P2;PMS_P1;PMS_P2;Temp;Humidity;BMP_temperature;BMP_pressure;BME280_temperature;BME280_humidity;BME280_pressure;Samples;Min_cycle;Max_cycle;Signal;HPM_P1;HPM_P2
2023/04/19 00:02:09;;;;;;;8.02;5.93;;;8.70;99.90;;;;;;5003801;28;20048;-84
2023/04/19 00:04:37;;;;;;;6.13;4.78;;;8.70;99.90;;;;;;5003616;28;20385;-84
2023/04/19 00:07:04;;;;;;;8.15;5.47;;;8.70;99.90;;;;;;5003439;28;20050;-84
2023/04/19 00:09:31;;;;;;;7.30;4.60;;;8.70;99.90;;;;;;5004057;28;20128;-85
2023/04/19 00:11:58;;;;;;;11.02;6.25;;;8.70;99.90;;;;;;5004700;28;20049;-84
2023/04/19 00:14:25;;;;;;;8.48;5.57;;;8.70;99.90;;;;;;5005952;28;20046;-84
2023/04/19 00:16:52;;;;;;;7.63;5.43;;;8.70;99.90;;;;;;5006504;28;20578;-85
2023/04/19 00:19:20;;;;;;;6.55;5.05;;;8.60;99.90;;;;;;5006717;28;20049;-84
2023/04/19 00:21:47;;;;;;;6.05;4.95;;;8.60;99.90;;;;;;5007120;28;20084;-84
2023/04/19 00:24:14;;;;;;;7.68;5.30;;;8.60;99.90;;;;;;5005871;28;20124;-84
2023/04/19 00:26:41;;;;;;;9.30;5.25;;;8.60;99.90;;;;;;5003961;28;20060;-84
2023/04/19 00:29:09;;;;;;;6.05;4.55;;;8.60;99.90;;;;;;5022218;28;20316;-84
2023/04/19 00:31:38;;;;;;;7.35;4.65;;;8.60;99.90;;;;;;5006486;28;20061;-84
2023/04/19 00:34:05;;;;;;;5.03;4.20;;;8.60;99.90;;;;;;5009548;28;20564;-84
2023/04/19 00:36:32;;;;;;;5.35;4.50;;;8.60;99.90;;;;;;5008637;28;20401;-85
2023/04/19 00:38:59;;;;;;;5.30;4.35;;;8.60;99.90;;;;;;5007314;28;20052;-85
2023/04/19 00:41:26;;;;;;;6.15;4.65;;;8.50;99.90;;;;;;5010638;28;20151;-85
2023/04/19 00:43:53;;;;;;;5.70;4.10;;;8.50;99.90;;;;;;5009068;28;20055;-84
2023/04/19 00:46:20;;;;;;;5.43;4.22;;;8.50;99.90;;;;;;5009790;28;20192;-84
2023/04/19 00:48:48;;;;;;;5.03;4.00;;;8.50;99.90;;;;;;5008189;28;20077;-84
2023/04/19 00:51:15;;;;;;;5.95;4.95;;;8.50;99.90;;;;;;5010068;28;20037;-84
2023/04/19 00:53:42;;;;;;;6.25;4.20;;;8.50;99.90;;;;;;5008428;28;20049;-84
2023/04/19 00:56:09;;;;;;;6.07;4.53;;;8.50;99.90;;;;;;5009209;28;20095;-84
2023/04/19 00:58:37;;;;;;;5.82;3.63;;;8.50;99.90;;;;;;5009819;28;20470;-84
2023/04/19 01:01:05;;;;;;;4.85;3.20;;;8.50;99.90;;;;;;5008889;28;20045;-84
2023/04/19 01:03:33;;;;;;;5.03;3.97;;;8.50;99.90;;;;;;5006754;28;20165;-84
2023/04/19 01:06:01;;;;;;;4.38;3.53;;;8.50;99.90;;;;;;5006813;28;20049;-84
2023/04/19 01:08:28;;;;;;;3.83;3.20;;;8.50;99.90;;;;;;5008707;28;20454;-84
2023/04/19 01:10:55;;;;;;;3.85;3.33;;;8.50;99.90;;;;;;5007175;28;20046;-84
2023/04/19 01:13:22;;;;;;;4.38;3.00;;;8.50;99.90;;;;;;5007130;28;20054;-84
2023/04/19 01:15:50;;;;;;;5.88;3.72;;;8.40;99.90;;;;;;5008831;28;20176;-84
2023/04/19 01:18:18;;;;;;;5.15;3.83;;;8.40;99.90;;;;;;5009764;28;20049;-84
2023/04/19 01:20:45;;;;;;;4.43;3.90;;;8.40;99.90;;;;;;5008846;28;20049;-84
2023/04/19 01:23:12;;;;;;;4.68;4.13;;;8.40;99.90;;;;;;5008140;28;20042;-85
2023/04/19 01:25:38;;;;;;;7.45;4.15;;;8.40;99.90;;;;;;5009233;28;20049;-83
2023/04/19 01:28:05;;;;;;;6.43;4.22;;;8.40;99.90;;;;;;5005974;28;20133;-84
2023/04/19 01:30:33;;;;;;;7.20;4.25;;;8.40;99.90;;;;;;4991535;28;20055;-84
2023/04/19 01:33:00;;;;;;;6.85;4.03;;;8.40;99.90;;;;;;5008649;28;20702;-83
2023/04/19 01:35:27;;;;;;;5.13;3.72;;;8.40;99.90;;;;;;5010348;28;20068;-84
2023/04/19 01:37:55;;;;;;;5.18;3.78;;;8.40;99.90;;;;;;5009608;28;20140;-84
2023/04/19 01:40:25;;;;;;;5.28;4.07;;;8.30;99.90;;;;;;5012564;28;20191;-84
2023/04/19 01:42:52;;;;;;;5.05;3.88;;;8.30;99.90;;;;;;5011067;28;20063;-84
2023/04/19 01:45:19;;;;;;;4.70;3.60;;;8.30;99.90;;;;;;5012156;28;20460;-85
2023/04/19 01:47:46;;;;;;;4.10;2.92;;;8.30;99.90;;;;;;5012861;28;20045;-83
2023/04/19 01:50:13;;;;;;;4.95;3.67;;;8.30;99.90;;;;;;5011496;28;20081;-84
2023/04/19 01:52:40;;;;;;;5.22;3.97;;;8.30;99.90;;;;;;5010970;28;20145;-83
2023/04/19 01:55:07;;;;;;;3.33;2.95;;;8.30;99.90;;;;;;5011452;28;20041;-83
2023/04/19 01:57:34;;;;;;;4.93;3.80;;;8.40;99.90;;;;;;5011990;28;20099;-83
2023/04/19 02:00:01;;;;;;;5.22;4.38;;;8.40;99.90;;;;;;5008662;28;20422;-83
2023/04/19 02:02:28;;;;;;;4.80;3.78;;;8.40;99.90;;;;;;5015637;28;20141;-85
2023/04/19 02:04:56;;;;;;;4.88;4.00;;;8.50;99.90;;;;;;5012385;28;20041;-84
2023/04/19 02:07:23;;;;;;;5.47;4.22;;;8.50;99.90;;;;;;5019342;28;20062;-86
2023/04/19 02:09:50;;;;;;;5.65;4.30;;;8.50;99.90;;;;;;5011584;28;20089;-84
2023/04/19 02:12:17;;;;;;;6.28;4.18;;;8.50;99.90;;;;;;5027526;28;20127;-84
2023/04/19 02:14:44;;;;;;;6.45;5.07;;;8.50;99.90;;;;;;5011886;28;20508;-85
2023/04/19 02:17:11;;;;;;;6.50;4.63;;;8.40;99.90;;;;;;5011273;28;20049;-83
2023/04/19 02:19:38;;;;;;;7.18;4.93;;;8.50;99.90;;;;;;5010000;28;20516;-84
2023/04/19 02:22:04;;;;;;;6.53;5.10;;;8.50;99.90;;;;;;5010702;28;20124;-84
2023/04/19 02:24:31;;;;;;;7.28;5.10;;;8.50;99.90;;;;;;5010776;28;20117;-83
2023/04/19 02:26:58;;;;;;;6.00;5.40;;;8.50;99.90;;;;;;5009029;28;20100;-84
2023/04/19 02:29:25;;;;;;;6.03;4.93;;;8.50;99.90;;;;;;5010984;28;20045;-84
2023/04/19 02:31:52;;;;;;;7.25;4.57;;;8.60;99.90;;;;;;5027238;28;20045;-83
2023/04/19 02:34:19;;;;;;;6.75;5.53;;;8.60;99.90;;;;;;5027405;28;20049;-84
2023/04/19 02:36:46;;;;;;;7.07;5.70;;;8.60;99.90;;;;;;5008169;28;20049;-83
2023/04/19 02:39:13;;;;;;;9.70;7.03;;;8.50;99.90;;;;;;5007512;28;20053;-84
2023/04/19 02:41:40;;;;;;;6.75;5.75;;;8.60;99.90;;;;;;5009198;28;20118;-84
2023/04/19 02:44:07;;;;;;;8.32;6.13;;;8.60;99.90;;;;;;5026614;28;20045;-84
2023/04/19 02:46:34;;;;;;;9.07;6.30;;;8.60;99.90;;;;;;5009658;28;20465;-84
2023/04/19 02:49:01;;;;;;;6.80;6.00;;;8.60;99.90;;;;;;5011503;28;20487;-84
2023/04/19 02:51:28;;;;;;;7.03;5.78;;;8.60;99.90;;;;;;5002282;28;20050;-84
2023/04/19 02:53:55;;;;;;;8.25;6.30;;;8.60;99.90;;;;;;5020684;28;20053;-84
2023/04/19 02:56:22;;;;;;;8.40;6.63;;;8.60;99.90;;;;;;5024981;28;20091;-84
2023/04/19 02:58:49;;;;;;;8.27;7.10;;;8.50;99.90;;;;;;5009794;28;20133;-84
2023/04/19 03:01:15;;;;;;;10.70;7.63;;;8.50;99.90;;;;;;5010069;28;20049;-85
2023/04/19 03:03:42;;;;;;;8.80;7.13;;;8.50;99.90;;;;;;5009764;28;20080;-84
2023/04/19 03:06:09;;;;;;;8.27;6.07;;;8.50;99.90;;;;;;5027226;28;20128;-84
2023/04/19 03:08:36;;;;;;;7.50;6.03;;;8.50;99.90;;;;;;5022412;28;20179;-84
2023/04/19 03:11:04;;;;;;;8.45;6.32;;;8.50;99.90;;;;;;5007156;28;20137;-85
2023/04/19 03:13:31;;;;;;;7.80;6.97;;;8.40;99.90;;;;;;5003262;28;20153;-84
2023/04/19 03:15:58;;;;;;;7.38;5.85;;;8.40;99.90;;;;;;5010280;28;20132;-84
2023/04/19 03:18:25;;;;;;;7.28;6.45;;;8.40;99.90;;;;;;5008849;28;20084;-84
2023/04/19 03:20:51;;;;;;;7.43;6.65;;;8.40;99.90;;;;;;5021845;28;20058;-84
2023/04/19 03:23:18;;;;;;;8.48;6.60;;;8.40;99.90;;;;;;5012624;28;20165;-84
2023/04/19 03:25:45;;;;;;;8.18;6.88;;;8.30;99.90;;;;;;5011307;28;20084;-84
2023/04/19 03:28:13;;;;;;;7.75;6.93;;;8.30;99.90;;;;;;5007893;28;20664;-84
2023/04/19 03:30:41;;;;;;;8.98;7.35;;;8.40;99.90;;;;;;5011874;28;20497;-84
2023/04/19 03:33:08;;;;;;;9.95;8.23;;;8.30;99.90;;;;;;5008915;28;20049;-83
2023/04/19 03:35:35;;;;;;;10.57;7.53;;;8.30;99.90;;;;;;5009183;28;20045;-83
2023/04/19 03:38:02;;;;;;;10.52;7.55;;;8.30;99.90;;;;;;5007768;28;20159;-84
2023/04/19 03:40:31;;;;;;;8.45;7.18;;;8.30;99.90;;;;;;5008523;28;20047;-84
2023/04/19 03:42:58;;;;;;;7.00;6.28;;;8.30;99.90;;;;;;5008651;28;20124;-83
2023/04/19 03:45:26;;;;;;;7.63;6.80;;;8.30;99.90;;;;;;5010171;28;20053;-84
2023/04/19 03:47:53;;;;;;;8.38;7.13;;;8.30;99.90;;;;;;5010423;28;20109;-83
2023/04/19 03:50:19;;;;;;;9.45;7.20;;;8.20;99.90;;;;;;5009736;28;20652;-84
2023/04/19 03:52:46;;;;;;;8.55;7.00;;;8.20;99.90;;;;;;5021662;28;20053;-83
2023/04/19 03:55:13;;;;;;;5.90;5.40;;;8.20;99.90;;;;;;5005810;28;20133;-84
2023/04/19 03:57:40;;;;;;;5.82;5.22;;;8.20;99.90;;;;;;4990492;28;20108;-83
2023/04/19 04:00:07;;;;;;;6.53;5.32;;;8.20;99.90;;;;;;4991440;28;20151;-83
2023/04/19 04:02:38;;;;;;;6.50;4.93;;;8.20;99.90;;;;;;5007485;28;20107;-84
2023/04/19 04:05:06;;;;;;;6.90;5.85;;;8.10;99.90;;;;;;4990492;28;20050;-84
2023/04/19 04:07:33;;;;;;;7.32;6.32;;;8.10;99.90;;;;;;4990043;28;20058;-84
2023/04/19 04:10:00;;;;;;;6.38;5.50;;;8.10;99.90;;;;;;5009717;28;20052;-84
2023/04/19 04:12:27;;;;;;;7.32;6.28;;;8.10;99.90;;;;;;5011587;28;20064;-84
2023/04/19 04:14:54;;;;;;;7.57;6.53;;;8.00;99.90;;;;;;5013280;28;20080;-84
2023/04/19 04:17:21;;;;;;;8.40;6.90;;;8.00;99.90;;;;;;5012200;28;20172;-84
2023/04/19 04:19:48;;;;;;;7.43;6.10;;;8.00;99.90;;;;;;5029291;28;20046;-84
2023/04/19 04:22:15;;;;;;;7.25;6.40;;;8.00;99.90;;;;;;5001104;28;20108;-84
2023/04/19 04:24:43;;;;;;;7.38;6.57;;;8.00;99.90;;;;;;5027388;28;20206;-84
2023/04/19 04:27:09;;;;;;;6.30;5.65;;;8.00;99.90;;;;;;5008691;28;20087;-83
2023/04/19 04:29:37;;;;;;;6.15;5.50;;;8.00;99.90;;;;;;5030945;28;20054;-83
2023/04/19 04:32:07;;;;;;;7.78;6.75;;;8.00;99.90;;;;;;5029714;28;20061;-83
2023/04/19 04:34:35;;;;;;;7.60;6.78;;;8.00;99.90;;;;;;5002181;28;20111;-83
2023/04/19 04:37:02;;;;;;;8.18;7.38;;;8.00;99.90;;;;;;5013838;28;20057;-84
2023/04/19 04:39:29;;;;;;;8.25;5.70;;;7.90;99.90;;;;;;5014755;28;20037;-84
2023/04/19 04:41:56;;;;;;;6.70;5.82;;;8.00;99.90;;;;;;5013383;28;20076;-83
2023/04/19 04:44:23;;;;;;;8.77;7.18;;;8.00;99.90;;;;;;5008577;28;20556;-84
2023/04/19 04:46:50;;;;;;;7.80;6.97;;;7.90;99.90;;;;;;5021432;28;20045;-83
2023/04/19 04:49:17;;;;;;;9.40;7.95;;;7.90;99.90;;;;;;5012753;28;20088;-83
2023/04/19 04:51:44;;;;;;;7.78;6.88;;;8.00;99.90;;;;;;5012675;28;20080;-87
2023/04/19 04:54:11;;;;;;;7.60;6.80;;;8.00;99.90;;;;;;5009209;28;20051;-84
2023/04/19 04:56:38;;;;;;;8.30;7.40;;;8.00;99.90;;;;;;5010102;28;20093;-83
2023/04/19 04:59:06;;;;;;;8.77;6.95;;;8.00;99.90;;;;;;5010275;28;20053;-84
2023/04/19 05:01:33;;;;;;;7.78;6.53;;;8.00;99.90;;;;;;5026625;28;20507;-85
2023/04/19 05:04:00;;;;;;;7.88;6.72;;;8.00;99.90;;;;;;5007534;28;20053;-85
2023/04/19 05:06:27;;;;;;;9.10;7.35;;;8.00;99.90;;;;;;5007960;28;20068;-85
2023/04/19 05:08:55;;;;;;;8.02;7.20;;;8.00;99.90;;;;;;5009054;28;20053;-85
2023/04/19 05:11:22;;;;;;;6.75;6.05;;;8.00;99.90;;;;;;5008475;28;20068;-84
2023/04/19 05:13:49;;;;;;;7.22;5.50;;;8.00;99.90;;;;;;5012690;28;20088;-82
2023/04/19 05:16:16;;;;;;;7.82;6.63;;;8.00;99.90;;;;;;4988476;28;20136;-84
2023/04/19 05:18:43;;;;;;;8.27;6.95;;;8.00;99.90;;;;;;5006094;28;20113;-84
2023/04/19 05:21:10;;;;;;;7.28;6.22;;;7.90;99.90;;;;;;5006573;28;20084;-85
2023/04/19 05:23:37;;;;;;;6.05;5.05;;;8.00;99.90;;;;;;5002531;28;20535;-84
2023/04/19 05:26:04;;;;;;;6.32;5.63;;;8.00;99.90;;;;;;4985941;28;20052;-84
2023/04/19 05:28:34;;;;;;;7.32;6.15;;;8.00;99.90;;;;;;4982920;28;20053;-85
2023/04/19 05:31:01;;;;;;;8.18;7.15;;;8.00;99.90;;;;;;5008018;28;20057;-86
2023/04/19 05:33:28;;;;;;;7.80;6.82;;;8.00;99.90;;;;;;5009693;28;20053;-84
2023/04/19 05:35:55;;;;;;;7.65;6.85;;;8.00;99.90;;;;;;5007940;28;20069;-85
2023/04/19 05:38:22;;;;;;;8.15;7.28;;;8.00;99.90;;;;;;5008166;28;20063;-87
2023/04/19 05:40:49;;;;;;;7.28;6.57;;;8.00;99.90;;;;;;5011807;28;20062;-87
2023/04/19 05:43:16;;;;;;;7.55;6.38;;;8.00;99.90;;;;;;5003989;28;20438;-84
2023/04/19 05:45:43;;;;;;;6.60;5.55;;;8.00;99.90;;;;;;4988701;28;20120;-87
2023/04/19 05:48:10;;;;;;;6.88;6.18;;;8.00;99.90;;;;;;4988922;28;20484;-85
2023/04/19 05:50:38;;;;;;;7.63;6.82;;;8.10;99.90;;;;;;4999598;28;20140;-84
2023/04/19 05:53:05;;;;;;;6.70;5.97;;;8.10;99.90;;;;;;4999561;28;20119;-84
2023/04/19 05:55:32;;;;;;;7.88;7.03;;;8.10;99.90;;;;;;5007167;28;20060;-84
2023/04/19 05:57:59;;;;;;;8.45;7.47;;;8.10;99.90;;;;;;5006271;28;20487;-84
2023/04/19 06:00:27;;;;;;;8.75;7.85;;;8.10;99.90;;;;;;5005339;28;20073;-85
2023/04/19 06:02:54;;;;;;;9.45;8.55;;;8.20;99.90;;;;;;5003356;28;20433;-85
2023/04/19 06:05:21;;;;;;;14.18;11.27;;;8.20;99.90;;;;;;4986035;28;20082;-85
2023/04/19 06:07:49;;;;;;;12.30;11.00;;;8.20;99.90;;;;;;4985804;28;20386;-84
2023/04/19 06:10:25;;;;;;;10.25;9.25;;;8.20;99.90;;;;;;4999653;28;20076;-83
2023/04/19 06:13:03;;;;;;;9.55;8.55;;;8.30;99.90;;;;;;4997025;28;20049;-84
2023/04/19 06:15:30;;;;;;;8.85;7.85;;;8.30;99.90;;;;;;5001290;28;20072;-84
2023/04/19 06:17:57;;;;;;;10.38;8.50;;;8.40;99.90;;;;;;5001263;28;20128;-84
2023/04/19 06:20:25;;;;;;;10.90;9.02;;;8.40;99.90;;;;;;5017722;28;20507;-84
2023/04/19 06:22:52;;;;;;;12.15;9.30;;;8.40;99.90;;;;;;5001715;28;20053;-85
2023/04/19 06:25:19;;;;;;;11.18;9.65;;;8.50;99.90;;;;;;4986143;28;20162;-84
2023/04/19 06:27:47;;;;;;;11.90;10.18;;;8.50;99.90;;;;;;5003983;28;20107;-84
2023/04/19 06:30:14;;;;;;;11.32;10.18;;;8.60;99.90;;;;;;5000112;28;20083;-83
2023/04/19 06:32:41;;;;;;;15.40;11.85;;;8.60;99.90;;;;;;5002013;28;20132;-84
2023/04/19 06:35:08;;;;;;;12.18;10.63;;;8.60;99.90;;;;;;5005516;28;20065;-84
2023/04/19 06:37:35;;;;;;;15.57;12.57;;;8.70;99.90;;;;;;5007653;28;20132;-84
2023/04/19 06:40:07;;;;;;;11.63;9.65;;;8.70;99.90;;;;;;4997654;28;20060;-84
2023/04/19 06:42:34;;;;;;;11.32;9.40;;;8.80;99.90;;;;;;5002959;28;20081;-84
2023/04/19 06:45:01;;;;;;;10.00;8.88;;;8.90;99.90;;;;;;5019723;28;20438;-84
2023/04/19 06:47:28;;;;;;;10.63;8.15;;;8.90;99.90;;;;;;5003508;28;20065;-84
2023/04/19 06:49:56;;;;;;;11.30;10.10;;;9.00;99.90;;;;;;5003815;28;20149;-83
2023/04/19 06:52:23;;;;;;;11.50;10.30;;;9.00;99.90;;;;;;5002777;28;20493;-83
2023/04/19 06:54:50;;;;;;;10.43;9.32;;;9.00;99.90;;;;;;4987134;28;20084;-84
2023/04/19 06:57:17;;;;;;;9.65;8.32;;;9.10;99.90;;;;;;5017755;28;20160;-84
2023/04/19 06:59:44;;;;;;;10.98;9.60;;;9.20;99.90;;;;;;5020274;28;20220;-84
2023/04/19 07:02:11;;;;;;;11.48;9.50;;;9.30;99.90;;;;;;4999827;28;20067;-83
2023/04/19 07:04:38;;;;;;;10.20;9.18;;;9.40;99.90;;;;;;5020599;28;20057;-84
2023/04/19 07:07:05;;;;;;;11.20;8.80;;;9.50;99.90;;;;;;5016973;28;20157;-84
2023/04/19 07:09:33;;;;;;;10.02;9.02;;;9.70;99.90;;;;;;4999406;28;20130;-83
2023/04/19 07:12:00;;;;;;;10.38;9.07;;;9.80;99.90;;;;;;5017602;28;20126;-82
2023/04/19 07:14:28;;;;;;;10.65;9.55;;;9.90;99.90;;;;;;4998646;28;20058;-84
2023/04/19 07:16:55;;;;;;;11.63;10.43;;;10.00;99.90;;;;;;4989329;28;20045;-83
2023/04/19 07:19:22;;;;;;;12.38;11.07;;;10.10;99.90;;;;;;4998447;28;20069;-83
2023/04/19 07:21:49;;;;;;;15.65;11.27;;;10.30;99.90;;;;;;5001321;28;20049;-84
2023/04/19 07:24:16;;;;;;;13.50;11.65;;;10.40;99.90;;;;;;5017427;28;20072;-84
2023/04/19 07:26:43;;;;;;;13.88;11.68;;;10.40;99.90;;;;;;4987008;28;20049;-84
2023/04/19 07:29:10;;;;;;;12.40;10.52;;;10.50;99.90;;;;;;5004155;28;20164;-84
2023/04/19 07:31:40;;;;;;;11.02;9.90;;;10.70;99.90;;;;;;5003746;28;20068;-85
2023/04/19 07:34:07;;;;;;;9.70;8.70;;;10.70;99.90;;;;;;5019892;28;20049;-84
2023/04/19 07:36:35;;;;;;;17.17;12.27;;;10.90;99.90;;;;;;5001069;28;20420;-84
2023/04/19 07:39:03;;;;;;;12.77;11.50;;;10.90;99.90;;;;;;5015572;28;20501;-85
2023/04/19 07:41:32;;;;;;;11.35;10.15;;;10.90;99.90;;;;;;5017344;28;20050;-85
2023/04/19 07:44:02;;;;;;;12.60;11.25;;;11.10;99.90;;;;;;5003404;28;20091;-85
2023/04/19 07:46:29;;;;;;;12.85;10.25;;;11.10;99.90;;;;;;5003362;28;20083;-85
2023/04/19 07:48:56;;;;;;;11.65;10.48;;;11.20;99.90;;;;;;5004464;28;20052;-85
2023/04/19 07:51:24;;;;;;;13.05;10.95;;;11.30;99.90;;;;;;4984861;28;20049;-84
2023/04/19 07:53:51;;;;;;;13.15;11.70;;;11.40;99.90;;;;;;5001531;28;20064;-85
2023/04/19 07:56:19;;;;;;;14.32;12.05;;;11.40;99.90;;;;;;5003871;28;20068;-84
2023/04/19 07:58:46;;;;;;;12.65;11.35;;;11.50;99.90;;;;;;5004836;28;20108;-86
2023/04/19 08:01:30;;;;;;;12.27;11.00;;;11.60;99.90;;;;;;5005603;28;20079;-85
2023/04/19 08:03:58;;;;;;;13.60;11.60;;;11.60;99.90;;;;;;5015681;28;20194;-85
2023/04/19 08:06:26;;;;;;;13.23;11.93;;;11.60;99.90;;;;;;5003818;28;20838;-85
2023/04/19 08:08:53;;;;;;;10.32;9.05;;;11.70;99.90;;;;;;5005135;28;20059;-84
2023/04/19 08:11:20;;;;;;;13.50;11.90;;;11.80;99.90;;;;;;5004482;28;20111;-85
2023/04/19 08:13:47;;;;;;;15.85;14.15;;;11.80;99.90;;;;;;5000355;28;20053;-84
2023/04/19 08:16:32;;;;;;;15.50;13.95;;;11.80;99.90;;;;;;5006337;28;20046;-84
2023/04/19 08:19:19;;;;;;;15.95;14.10;;;11.80;99.90;;;;;;4995495;28;20057;-84
2023/04/19 08:21:46;;;;;;;13.45;12.05;;;11.80;99.90;;;;;;5001865;28;20148;-84
2023/04/19 08:24:13;;;;;;;13.60;12.13;;;12.00;99.90;;;;;;4999689;28;20547;-84
2023/04/19 08:26:41;;;;;;;13.15;11.75;;;12.00;99.90;;;;;;5001792;28;20073;-84
2023/04/19 08:29:08;;;;;;;13.68;11.25;;;12.20;99.90;;;;;;4981681;28;20060;-85
2023/04/19 08:31:35;;;;;;;13.27;11.98;;;12.20;99.90;;;;;;4996856;28;20430;-85
2023/04/19 08:34:02;;;;;;;11.60;10.40;;;12.20;99.90;;;;;;4999836;28;20060;-86
2023/04/19 08:36:29;;;;;;;12.45;10.60;;;12.30;99.90;;;;;;4998922;28;20046;-86
2023/04/19 08:39:06;;;;;;;16.70;14.77;;;12.40;99.90;;;;;;4998897;28;20045;-85
2023/04/19 08:41:43;;;;;;;14.15;11.65;;;12.40;99.90;;;;;;5001859;28;20053;-86
2023/04/19 08:44:16;;;;;;;11.83;10.63;;;12.50;99.90;;;;;;5015769;28;20630;-85
2023/04/19 08:47:01;;;;;;;9.98;8.30;;;12.60;99.90;;;;;;5001534;28;20426;-85
2023/04/19 08:49:28;;;;;;;9.48;8.48;;;12.70;99.90;;;;;;5018051;28;20052;-85
2023/04/19 08:51:57;;;;;;;9.70;7.88;;;12.80;99.90;;;;;;5017919;28;20156;-85
2023/04/19 08:54:24;;;;;;;9.48;8.45;;;12.90;99.90;;;;;;5014918;28;20119;-85
2023/04/19 08:56:53;;;;;;;13.00;11.68;;;12.90;99.90;;;;;;4985321;28;20127;-86
2023/04/19 08:59:20;;;;;;;10.80;9.80;;;12.80;99.90;;;;;;5018790;28;20461;-85
2023/04/19 09:01:49;;;;;;;12.65;9.20;;;12.80;99.90;;;;;;5001756;28;20057;-85
2023/04/19 09:04:15;;;;;;;9.38;7.90;;;12.90;99.90;;;;;;5001013;28;20107;-85
2023/04/19 09:07:02;;;;;;;11.27;10.05;;;12.90;99.90;;;;;;5008087;28;20048;-85
2023/04/19 09:09:30;;;;;;;11.35;10.07;;;13.00;99.90;;;;;;4990919;28;20055;-85
2023/04/19 09:12:18;;;;;;;11.60;10.20;;;12.90;99.90;;;;;;5024766;28;20049;-85
2023/04/19 09:14:46;;;;;;;13.60;10.80;;;12.80;99.90;;;;;;5003602;28;20461;-85
2023/04/19 09:17:28;;;;;;;11.65;10.48;;;12.80;99.90;;;;;;5008582;28;20152;-86
2023/04/19 09:19:55;;;;;;;10.40;9.40;;;12.90;99.90;;;;;;5007611;28;20049;-85
2023/04/19 09:22:22;;;;;;;12.18;10.70;;;13.10;99.90;;;;;;5006660;28;20641;-86
2023/04/19 09:24:49;;;;;;;12.70;11.40;;;13.00;99.90;;;;;;5002649;28;20054;-85
2023/04/19 09:27:26;;;;;;;12.90;10.90;;;13.00;99.90;;;;;;5008085;28;20455;-86
2023/04/19 09:29:55;;;;;;;9.80;8.80;;;12.90;99.90;;;;;;5032236;28;20585;-85
2023/04/19 09:32:22;;;;;;;9.82;8.93;;;13.00;99.90;;;;;;5007637;28;20053;-85
2023/04/19 09:34:51;;;;;;;11.02;8.95;;;13.00;99.90;;;;;;5005683;28;20049;-85
2023/04/19 09:37:19;;;;;;;8.50;7.68;;;13.10;99.90;;;;;;4985588;28;20650;-85
2023/04/19 09:40:22;;;;;;;11.68;9.23;;;13.10;99.90;;;;;;5003061;28;20481;-83
2023/04/19 09:42:49;;;;;;;10.73;9.40;;;13.20;99.90;;;;;;5017768;28;20057;-83
2023/04/19 09:45:19;;;;;;;10.13;8.43;;;13.30;99.90;;;;;;5016950;28;20475;-83
2023/04/19 09:48:03;;;;;;;11.02;9.82;;;13.40;99.90;;;;;;5005019;28;20141;-84
2023/04/19 09:50:30;;;;;;;12.35;10.85;;;13.30;99.90;;;;;;5001915;28;20126;-83
2023/04/19 09:53:00;;;;;;;10.73;9.55;;;13.40;99.90;;;;;;5016727;28;20053;-83
2023/04/19 09:55:26;;;;;;;10.48;8.35;;;13.40;99.90;;;;;;4990207;28;20160;-86
2023/04/19 09:57:59;;;;;;;11.05;9.75;;;13.50;99.90;;;;;;5009047;28;20422;-86
2023/04/19 10:00:26;;;;;;;9.73;8.70;;;13.50;99.90;;;;;;5007182;28;20432;-86
2023/04/19 10:03:01;;;;;;;9.93;8.85;;;13.60;99.90;;;;;;5009280;28;20132;-86
2023/04/19 10:05:28;;;;;;;10.80;9.32;;;13.70;99.90;;;;;;5006729;28;20080;-86
2023/04/19 10:07:58;;;;;;;11.23;9.68;;;13.90;99.90;;;;;;5005940;28;20053;-86
2023/04/19 10:10:26;;;;;;;8.68;7.65;;;13.90;99.90;;;;;;5005517;28;20424;-87
2023/04/19 10:13:10;;;;;;;9.03;8.13;;;14.00;99.90;;;;;;5022211;28;20077;-86
2023/04/19 10:15:46;;;;;;;8.05;7.25;;;14.00;99.90;;;;;;5019898;28;20053;-86
2023/04/19 10:18:23;;;;;;;10.32;9.23;;;13.90;99.90;;;;;;4994014;28;20047;-87
2023/04/19 10:21:00;;;;;;;7.93;7.13;;;13.90;99.90;;;;;;5003138;28;20398;-80
2023/04/19 10:23:28;;;;;;;12.35;9.82;;;14.10;99.90;;;;;;5024178;28;20060;-90
2023/04/19 10:25:58;;;;;;;13.70;10.82;;;14.10;99.90;;;;;;5032633;28;20044;-89
2023/04/19 10:28:27;;;;;;;10.50;8.68;;;14.20;99.90;;;;;;5010258;28;20148;-88
2023/04/19 10:31:00;;;;;;;11.63;9.30;;;14.40;99.90;;;;;;5025364;28;20137;-89
2023/04/19 10:33:29;;;;;;;;;;;14.50;99.90;;;;;;4996462;28;20157;-87
2023/04/19 10:35:57;;;;;;;9.00;7.43;;;14.70;99.90;;;;;;5022708;28;19932;-89
2023/04/19 10:38:42;;;;;;;10.02;8.95;;;14.80;99.90;;;;;;5007622;28;20062;-89
2023/04/19 10:41:13;;;;;;;8.65;7.63;;;14.90;99.90;;;;;;5011072;28;20601;-89
2023/04/19 10:43:56;;;;;;;11.13;8.57;;;15.00;99.90;;;;;;5008761;28;20133;-89
2023/04/19 10:46:24;;;;;;;8.20;7.20;;;14.90;99.90;;;;;;5025363;28;20365;-88
2023/04/19 10:48:59;;;;;;;7.55;6.82;;;15.10;99.90;;;;;;5025364;28;20136;-89
2023/04/19 10:51:32;;;;;;;7.43;6.18;;;15.10;99.90;;;;;;5017152;28;20076;-88
2023/04/19 10:54:26;;;;;;;6.45;5.75;;;15.40;99.90;;;;;;5025773;28;20058;-90
2023/04/19 10:56:58;;;;;;;8.98;7.38;;;15.60;99.90;;;;;;4977359;28;20136;-90
2023/04/19 10:59:28;;;;;;;10.25;8.25;;;15.50;99.90;;;;;;5009252;28;20053;-90
2023/04/19 11:01:57;;;;;;;8.52;7.55;;;15.40;99.90;;;;;;5009307;28;20073;-90
2023/04/19 11:04:30;;;;;;;8.68;7.35;;;15.30;99.90;;;;;;5008348;28;20057;-90
2023/04/19 11:07:01;;;;;;;10.98;7.68;;;15.30;99.90;;;;;;5024962;28;20068;-89
2023/04/19 11:09:37;;;;;;;8.70;7.45;;;15.10;99.90;;;;;;5008761;28;20122;-90
2023/04/19 11:12:09;;;;;;;10.45;7.40;;;14.90;99.90;;;;;;5009052;28;20050;-91
2023/04/19 11:14:42;;;;;;;11.23;7.97;;;14.70;99.90;;;;;;5001754;28;20054;-90
2023/04/19 11:17:16;;;;;;;13.10;7.78;;;14.70;99.90;;;;;;5007394;28;20045;-90
2023/04/19 11:20:02;;;;;;;8.85;7.10;;;14.90;99.90;;;;;;5025158;28;20073;-90
2023/04/19 11:22:39;;;;;;;8.43;7.07;;;14.80;99.90;;;;;;5024096;28;20053;-90
2023/04/19 11:25:19;;;;;;;8.75;6.85;;;14.80;99.90;;;;;;5006746;28;20049;-90
2023/04/19 11:27:51;;;;;;;6.90;6.05;;;15.00;99.90;;;;;;5011672;28;20785;-90
2023/04/19 11:30:21;;;;;;;8.93;7.13;;;15.50;99.90;;;;;;5008668;28;20042;-89
2023/04/19 11:32:52;;;;;;;7.30;6.20;;;15.80;99.90;;;;;;5006561;28;20412;-89
2023/04/19 11:35:20;;;;;;;9.40;8.18;;;16.30;99.90;;;;;;5009568;28;20667;-90
2023/04/19 11:37:47;;;;;;;12.18;7.22;;;16.30;99.90;;;;;;5009378;28;20084;-90
2023/04/19 11:40:17;;;;;;;8.75;7.82;;;16.40;99.90;;;;;;5002863;28;20140;-90
2023/04/19 11:42:44;;;;;;;8.40;6.53;;;16.40;99.90;;;;;;5010170;28;20045;-89
2023/04/19 11:45:12;;;;;;;8.38;6.80;;;16.20;99.90;;;;;;5011248;28;20266;-89
2023/04/19 11:47:54;;;;;;;6.68;5.85;;;16.30;99.90;;;;;;5013624;28;20643;-95
2023/04/19 11:50:31;;;;;;;8.43;7.05;;;16.50;99.90;;;;;;5023037;28;20216;-87
2023/04/19 11:52:59;;;;;;;7.20;5.90;;;16.70;99.90;;;;;;5012558;28;20494;-88
2023/04/19 11:55:26;;;;;;;6.05;5.45;;;17.00;99.90;;;;;;5010297;28;20571;-88
2023/04/19 11:57:53;;;;;;;5.55;5.03;;;17.50;99.90;;;;;;5010937;28;20181;-87
2023/04/19 12:00:26;;;;;;;8.57;5.53;;;18.10;99.90;;;;;;5006979;28;20057;-87
2023/04/19 12:02:53;;;;;;;7.60;6.50;;;18.40;99.90;;;;;;4998060;28;20053;-89
2023/04/19 12:05:22;;;;;;;6.60;5.85;;;18.10;99.90;;;;;;5010559;28;20240;-89
2023/04/19 12:08:03;;;;;;;7.47;6.30;;;17.80;99.90;;;;;;5010696;28;20488;-88
2023/04/19 12:10:31;;;;;;;6.57;5.88;;;17.90;99.90;;;;;;5026872;28;20084;-89
2023/04/19 12:12:58;;;;;;;6.22;5.63;;;18.00;99.90;;;;;;5010566;28;20053;-88
2023/04/19 12:15:43;;;;;;;5.93;5.30;;;18.20;99.90;;;;;;5010371;28;20441;-88
2023/04/19 12:18:10;;;;;;;6.85;5.90;;;18.50;99.90;;;;;;5010016;28;20049;-89
2023/04/19 12:20:38;;;;;;;6.20;5.18;;;18.60;99.90;;;;;;5008125;28;20053;-89
2023/04/19 12:23:09;;;;;;;5.35;4.70;;;18.60;99.90;;;;;;5008153;28;20080;-88
2023/04/19 12:25:39;;;;;;;6.25;5.35;;;18.40;99.90;;;;;;5008801;28;20139;-86
2023/04/19 12:28:06;;;;;;;5.93;4.95;;;18.20;99.90;;;;;;5009264;28;20405;-89
2023/04/19 12:30:35;;;;;;;4.78;4.05;;;18.70;99.90;;;;;;5013415;28;20067;-87
2023/04/19 12:33:02;;;;;;;4.38;3.97;;;19.20;99.90;;;;;;5012650;28;20053;-89
2023/04/19 12:35:30;;;;;;;5.10;3.72;;;19.30;99.90;;;;;;5012099;28;20057;-89
2023/04/19 12:37:57;;;;;;;6.18;3.85;;;19.60;99.90;;;;;;5014572;28;20430;-89
2023/04/19 12:40:25;;;;;;;4.78;4.25;;;19.70;99.90;;;;;;5010676;28;20054;-89
2023/04/19 12:42:52;;;;;;;4.90;3.72;;;19.50;99.90;;;;;;5001333;28;20049;-88
2023/04/19 12:45:19;;;;;;;3.60;2.72;;;19.40;99.90;;;;;;5012447;28;20084;-89
2023/04/19 12:47:47;;;;;;;4.40;2.45;;;20.00;99.90;;;;;;5014155;28;20049;-89
2023/04/19 12:50:14;;;;;;;3.22;2.70;;;20.30;99.90;;;;;;5013737;28;20069;-89
2023/04/19 12:52:43;;;;;;;3.78;3.20;;;20.80;99.40;;;;;;5011278;28;20092;-89
2023/04/19 12:55:10;;;;;;;4.25;3.17;;;20.80;98.30;;;;;;5013503;28;20251;-88
2023/04/19 12:57:37;;;;;;;4.57;3.63;;;20.50;98.40;;;;;;5013409;28;20069;-89